sensor_id;sensor_type;location;lat;lon;timestamp;pressure;altitude;pressure_sealevel;temperature;humidity
740;BME280;354;42.694;23.336;2023-04-10T00:01:38;95413.19;;;8.23;100.00
740;BME280;354;42.694;23.336;2023-04-10T00:04:04;95409.44;;;8.32;100.00
740;BME280;354;42.694;23.336;2023-04-10T00:06:30;95405.69;;;8.41;100.00
740;BME280;354;42.694;23.336;2023-04-10T00:08:59;95409.94;;;8.42;100.00
740;BME280;354;42.694;23.336;2023-04-10T00:11:25;95395.84;;;8.50;100.00
740;BME280;354;42.694;23.336;2023-04-10T00:13:52;95398.06;;;8.47;100.00
740;BME280;354;42.694;23.336;2023-04-10T00:16:17;95398.50;;;8.57;100.00
740;BME280;354;42.694;23.336;2023-04-10T00:18:42;95390.22;;;8.47;100.00
740;BME280;354;42.694;23.336;2023-04-10T00:21:08;95394.47;;;8.54;100.00
740;BME280;354;42.694;23.336;2023-04-10T00:23:33;95393.44;;;8.49;100.00
740;BME280;354;42.694;23.336;2023-04-10T00:25:59;95385.56;;;8.49;100.00
740;BME280;354;42.694;23.336;2023-04-10T00:28:25;95384.72;;;8.41;100.00
740;BME280;354;42.694;23.336;2023-04-10T00:30:51;95378.84;;;8.39;100.00
740;BME280;354;42.694;23.336;2023-04-10T00:33:16;95379.38;;;8.28;100.00
740;BME280;354;42.694;23.336;2023-04-10T00:35:41;95367.28;;;8.27;100.00
740;BME280;354;42.694;23.336;2023-04-10T00:38:07;95380.69;;;8.45;100.00
740;BME280;354;42.694;23.336;2023-04-10T00:40:32;95382.72;;;8.43;100.00
740;BME280;354;42.694;23.336;2023-04-10T00:42:58;95375.44;;;8.39;100.00
740;BME280;354;42.694;23.336;2023-04-10T00:45:23;95371.75;;;8.33;100.00
740;BME280;354;42.694;23.336;2023-04-10T00:47:49;95360.41;;;8.26;100.00
740;BME280;354;42.694;23.336;2023-04-10T00:50:15;95379.06;;;8.38;100.00
740;BME280;354;42.694;23.336;2023-04-10T00:52:40;95385.94;;;8.45;100.00
740;BME280;354;42.694;23.336;2023-04-10T00:55:06;95359.66;;;8.32;100.00
740;BME280;354;42.694;23.336;2023-04-10T00:57:32;95346.25;;;8.14;100.00
740;BME280;354;42.694;23.336;2023-04-10T00:59:58;95356.59;;;8.29;100.00
740;BME280;354;42.694;23.336;2023-04-10T01:02:24;95367.38;;;8.40;100.00
740;BME280;354;42.694;23.336;2023-04-10T01:04:50;95368.44;;;8.46;100.00
740;BME280;354;42.694;23.336;2023-04-10T01:07:34;95368.81;;;8.43;100.00
740;BME280;354;42.694;23.336;2023-04-10T01:13:10;95370.66;;;7.86;100.00
740;BME280;354;42.694;23.336;2023-04-10T01:18:47;95375.66;;;7.60;100.00
740;BME280;354;42.694;23.336;2023-04-10T01:21:15;95375.66;;;7.60;100.00
740;BME280;354;42.694;23.336;2023-04-10T01:24:14;95382.72;;;7.59;100.00
740;BME280;354;42.694;23.336;2023-04-10T01:29:20;95373.13;;;7.45;100.00
740;BME280;354;42.694;23.336;2023-04-10T01:31:54;95367.22;;;7.36;100.00
740;BME280;354;42.694;23.336;2023-04-10T01:34:34;95374.69;;;7.39;100.00
740;BME280;354;42.694;23.336;2023-04-10T01:37:07;95371.50;;;7.44;100.00
740;BME280;354;42.694;23.336;2023-04-10T01:39:38;95315.41;;;7.04;100.00
740;BME280;354;42.694;23.336;2023-04-10T01:42:06;95380.41;;;7.50;100.00
740;BME280;354;42.694;23.336;2023-04-10T01:44:33;95382.84;;;7.51;100.00
740;BME280;354;42.694;23.336;2023-04-10T01:47:01;95380.16;;;7.66;100.00
740;BME280;354;42.694;23.336;2023-04-10T01:49:28;95354.34;;;7.42;100.00
740;BME280;354;42.694;23.336;2023-04-10T01:51:55;95378.50;;;7.58;100.00
740;BME280;354;42.694;23.336;2023-04-10T01:54:30;95385.44;;;7.73;100.00
740;BME280;354;42.694;23.336;2023-04-10T01:56:58;95376.91;;;7.64;100.00
740;BME280;354;42.694;23.336;2023-04-10T01:59:23;95372.91;;;7.68;100.00
740;BME280;354;42.694;23.336;2023-04-10T02:01:55;95382.88;;;7.79;100.00
740;BME280;354;42.694;23.336;2023-04-10T02:04:21;95366.66;;;7.69;100.00
740;BME280;354;42.694;23.336;2023-04-10T02:07:01;95379.47;;;7.85;100.00
740;BME280;354;42.694;23.336;2023-04-10T02:10:21;95370.66;;;7.86;100.00
740;BME280;354;42.694;23.336;2023-04-10T02:12:23;95370.56;;;7.80;100.00
740;BME280;354;42.694;23.336;2023-04-10T02:14:52;95350.47;;;7.80;100.00
740;BME280;354;42.694;23.336;2023-04-10T02:17:28;95355.03;;;7.72;100.00
740;BME280;354;42.694;23.336;2023-04-10T02:19:57;95352.03;;;7.75;100.00
740;BME280;354;42.694;23.336;2023-04-10T02:22:23;95346.56;;;7.70;100.00
740;BME280;354;42.694;23.336;2023-04-10T02:24:53;95350.78;;;7.71;100.00
740;BME280;354;42.694;23.336;2023-04-10T02:27:35;95347.59;;;7.75;100.00
740;BME280;354;42.694;23.336;2023-04-10T02:30:01;95339.69;;;7.69;100.00
740;BME280;354;42.694;23.336;2023-04-10T02:32:28;95347.88;;;7.59;100.00
740;BME280;354;42.694;23.336;2023-04-10T02:34:54;95338.25;;;7.66;100.00
740;BME280;354;42.694;23.336;2023-04-10T02:37:19;95329.31;;;7.54;100.00
740;BME280;354;42.694;23.336;2023-04-10T02:39:44;95337.81;;;7.62;100.00
740;BME280;354;42.694;23.336;2023-04-10T02:42:10;95333.78;;;7.60;100.00
740;BME280;354;42.694;23.336;2023-04-10T02:44:36;95304.78;;;7.33;100.00
740;BME280;354;42.694;23.336;2023-04-10T02:47:01;95328.38;;;7.40;100.00
740;BME280;354;42.694;23.336;2023-04-10T02:49:26;95321.44;;;7.26;100.00
740;BME280;354;42.694;23.336;2023-04-10T02:51:52;95320.50;;;7.12;100.00
740;BME280;354;42.694;23.336;2023-04-10T02:54:17;95321.09;;;7.14;100.00
740;BME280;354;42.694;23.336;2023-04-10T02:56:43;95318.19;;;7.02;100.00
740;BME280;354;42.694;23.336;2023-04-10T02:59:08;95317.38;;;7.02;100.00
740;BME280;354;42.694;23.336;2023-04-10T03:01:33;95324.28;;;6.88;100.00
740;BME280;354;42.694;23.336;2023-04-10T03:03:59;95311.97;;;6.82;100.00
740;BME280;354;42.694;23.336;2023-04-10T03:06:24;95324.69;;;6.70;100.00
740;BME280;354;42.694;23.336;2023-04-10T03:08:52;95304.56;;;6.49;100.00
740;BME280;354;42.694;23.336;2023-04-10T03:11:18;95320.06;;;6.51;100.00
740;BME280;354;42.694;23.336;2023-04-10T03:13:43;95324.94;;;6.39;100.00
740;BME280;354;42.694;23.336;2023-04-10T03:16:08;95317.19;;;6.31;100.00
740;BME280;354;42.694;23.336;2023-04-10T03:18:34;95326.66;;;6.32;100.00
740;BME280;354;42.694;23.336;2023-04-10T03:21:00;95330.91;;;6.33;100.00
740;BME280;354;42.694;23.336;2023-04-10T03:23:26;95309.38;;;6.16;100.00
740;BME280;354;42.694;23.336;2023-04-10T03:25:51;95317.56;;;6.28;100.00
740;BME280;354;42.694;23.336;2023-04-10T03:28:20;95310.28;;;6.23;100.00
740;BME280;354;42.694;23.336;2023-04-10T03:30:47;95330.97;;;6.40;100.00
740;BME280;354;42.694;23.336;2023-04-10T03:33:12;95328.38;;;6.25;100.00
740;BME280;354;42.694;23.336;2023-04-10T03:35:37;95339.63;;;6.25;100.00
740;BME280;354;42.694;23.336;2023-04-10T03:38:03;95331.72;;;6.19;100.00
740;BME280;354;42.694;23.336;2023-04-10T03:40:28;95300.47;;;5.96;100.00
740;BME280;354;42.694;23.336;2023-04-10T03:42:53;95343.16;;;6.18;100.00
740;BME280;354;42.694;23.336;2023-04-10T03:45:19;95328.66;;;6.00;100.00
740;BME280;354;42.694;23.336;2023-04-10T03:47:44;95340.53;;;6.03;100.00
740;BME280;354;42.694;23.336;2023-04-10T03:50:10;95345.03;;;6.09;100.00
740;BME280;354;42.694;23.336;2023-04-10T03:52:35;95357.75;;;6.12;100.00
740;BME280;354;42.694;23.336;2023-04-10T03:55:01;95353.78;;;6.16;100.00
740;BME280;354;42.694;23.336;2023-04-10T03:57:26;95363.25;;;6.17;100.00
740;BME280;354;42.694;23.336;2023-04-10T03:59:51;95353.41;;;6.19;100.00
740;BME280;354;42.694;23.336;2023-04-10T04:02:17;95357.38;;;6.15;100.00
740;BME280;354;42.694;23.336;2023-04-10T04:04:42;95354.59;;;6.17;100.00
740;BME280;354;42.694;23.336;2023-04-10T04:07:08;95362.69;;;6.22;100.00
740;BME280;354;42.694;23.336;2023-04-10T04:09:34;95363.31;;;6.24;100.00
740;BME280;354;42.694;23.336;2023-04-10T04:12:00;95355.66;;;6.22;100.00
740;BME280;354;42.694;23.336;2023-04-10T04:14:25;95368.72;;;6.37;100.00
740;BME280;354;42.694;23.336;2023-04-10T04:16:50;95371.06;;;6.32;100.00
740;BME280;354;42.694;23.336;2023-04-10T04:19:16;95368.28;;;6.48;100.00
740;BME280;354;42.694;23.336;2023-04-10T04:21:41;95338.81;;;6.40;100.00
740;BME280;354;42.694;23.336;2023-04-10T04:24:07;95358.16;;;6.60;100.00
740;BME280;354;42.694;23.336;2023-04-10T04:26:32;95367.75;;;6.74;100.00
740;BME280;354;42.694;23.336;2023-04-10T04:28:58;95355.94;;;6.78;100.00
740;BME280;354;42.694;23.336;2023-04-10T04:31:23;95364.06;;;6.83;100.00
740;BME280;354;42.694;23.336;2023-04-10T04:33:49;95362.38;;;6.97;100.00
740;BME280;354;42.694;23.336;2023-04-10T04:36:15;95357.38;;;7.38;100.00
740;BME280;354;42.694;23.336;2023-04-10T04:38:41;95368.88;;;7.65;100.00
740;BME280;354;42.694;23.336;2023-04-10T04:41:06;95372.75;;;7.98;100.00
740;BME280;354;42.694;23.336;2023-04-10T04:43:32;95365.78;;;7.83;100.00
740;BME280;354;42.694;23.336;2023-04-10T04:45:57;95366.19;;;8.15;100.00
740;BME280;354;42.694;23.336;2023-04-10T04:48:23;95363.28;;;8.31;100.00
740;BME280;354;42.694;23.336;2023-04-10T04:50:49;95364.13;;;8.38;100.00
740;BME280;354;42.694;23.336;2023-04-10T04:53:14;95369.63;;;8.50;100.00
740;BME280;354;42.694;23.336;2023-04-10T04:55:40;95368.28;;;8.61;100.00
740;BME280;354;42.694;23.336;2023-04-10T04:58:05;95368.16;;;8.82;100.00
740;BME280;354;42.694;23.336;2023-04-10T05:00:30;95378.91;;;9.01;100.00
740;BME280;354;42.694;23.336;2023-04-10T05:02:56;95366.66;;;9.21;100.00
740;BME280;354;42.694;23.336;2023-04-10T05:05:21;95369.50;;;9.26;100.00
740;BME280;354;42.694;23.336;2023-04-10T05:07:47;95374.38;;;9.49;100.00
740;BME280;354;42.694;23.336;2023-04-10T05:10:12;95340.63;;;9.39;100.00
740;BME280;354;42.694;23.336;2023-04-10T05:12:37;95367.75;;;9.73;100.00
740;BME280;354;42.694;23.336;2023-04-10T05:15:06;95364.91;;;10.01;100.00
740;BME280;354;42.694;23.336;2023-04-10T05:17:31;95366.09;;;10.25;100.00
740;BME280;354;42.694;23.336;2023-04-10T05:19:57;95351.31;;;10.31;100.00
740;BME280;354;42.694;23.336;2023-04-10T05:22:22;95373.75;;;10.40;100.00
740;BME280;354;42.694;23.336;2023-04-10T05:24:47;95369.56;;;10.84;100.00
740;BME280;354;42.694;23.336;2023-04-10T05:27:13;95372.72;;;11.05;100.00
740;BME280;354;42.694;23.336;2023-04-10T05:29:38;95364.00;;;11.43;100.00
740;BME280;354;42.694;23.336;2023-04-10T05:32:04;95361.31;;;11.81;100.00
740;BME280;354;42.694;23.336;2023-04-10T05:34:29;95354.03;;;11.77;100.00
740;BME280;354;42.694;23.336;2023-04-10T05:36:54;95368.41;;;12.06;100.00
740;BME280;354;42.694;23.336;2023-04-10T05:39:20;95337.38;;;12.26;100.00
740;BME280;354;42.694;23.336;2023-04-10T05:41:45;95353.41;;;12.25;100.00
740;BME280;354;42.694;23.336;2023-04-10T05:44:11;95359.44;;;12.32;100.00
740;BME280;354;42.694;23.336;2023-04-10T05:46:36;95365.75;;;12.68;100.00
740;BME280;354;42.694;23.336;2023-04-10T05:49:01;95363.09;;;12.68;100.00
740;BME280;354;42.694;23.336;2023-04-10T05:51:27;95372.13;;;12.78;100.00
740;BME280;354;42.694;23.336;2023-04-10T05:53:53;95361.28;;;12.68;100.00
740;BME280;354;42.694;23.336;2023-04-10T05:56:18;95370.88;;;12.44;100.00
740;BME280;354;42.694;23.336;2023-04-10T05:58:43;95357.38;;;12.34;100.00
740;BME280;354;42.694;23.336;2023-04-10T06:01:09;95379.91;;;12.55;100.00
740;BME280;354;42.694;23.336;2023-04-10T06:03:37;95371.16;;;12.73;98.00
740;BME280;354;42.694;23.336;2023-04-10T06:06:03;95377.03;;;12.93;96.29
740;BME280;354;42.694;23.336;2023-04-10T06:08:28;95374.06;;;13.01;94.65
740;BME280;354;42.694;23.336;2023-04-10T06:10:54;95374.28;;;13.36;93.85
740;BME280;354;42.694;23.336;2023-04-10T06:13:19;95374.97;;;13.13;95.11
740;BME280;354;42.694;23.336;2023-04-10T06:15:45;95342.81;;;12.50;99.48
740;BME280;354;42.694;23.336;2023-04-10T06:18:10;95362.81;;;11.96;100.00
740;BME280;354;42.694;23.336;2023-04-10T06:20:35;95365.34;;;12.09;100.00
740;BME280;354;42.694;23.336;2023-04-10T06:23:01;95344.75;;;12.18;100.00
740;BME280;354;42.694;23.336;2023-04-10T06:25:26;95369.66;;;12.03;100.00
740;BME280;354;42.694;23.336;2023-04-10T06:27:52;95374.09;;;11.46;100.00
740;BME280;354;42.694;23.336;2023-04-10T06:30:17;95361.25;;;11.25;100.00
740;BME280;354;42.694;23.336;2023-04-10T06:32:43;95367.97;;;11.52;100.00
740;BME280;354;42.694;23.336;2023-04-10T06:35:09;95368.28;;;11.38;100.00
740;BME280;354;42.694;23.336;2023-04-10T06:37:34;95364.03;;;11.37;100.00
740;BME280;354;42.694;23.336;2023-04-10T06:42:28;95350.25;;;11.34;100.00
740;BME280;354;42.694;23.336;2023-04-10T06:44:53;95355.94;;;11.31;100.00
740;BME280;354;42.694;23.336;2023-04-10T06:47:19;95378.09;;;11.55;100.00
740;BME280;354;42.694;23.336;2023-04-10T06:49:44;95364.81;;;11.44;100.00
740;BME280;354;42.694;23.336;2023-04-10T06:52:09;95371.06;;;11.74;100.00
740;BME280;354;42.694;23.336;2023-04-10T06:54:35;95381.16;;;11.84;100.00
740;BME280;354;42.694;23.336;2023-04-10T06:57:01;95381.25;;;11.96;100.00
740;BME280;354;42.694;23.336;2023-04-10T06:59:26;95386.31;;;11.97;100.00
740;BME280;354;42.694;23.336;2023-04-10T07:01:53;95374.94;;;12.03;100.00
740;BME280;354;42.694;23.336;2023-04-10T07:04:18;95375.28;;;12.32;100.00
740;BME280;354;42.694;23.336;2023-04-10T07:06:44;95381.53;;;12.12;99.97
740;BME280;354;42.694;23.336;2023-04-10T07:09:09;95372.34;;;12.40;99.88
740;BME280;354;42.694;23.336;2023-04-10T07:11:35;95381.59;;;12.68;97.09
740;BME280;354;42.694;23.336;2023-04-10T07:14:00;95361.34;;;12.61;97.59
740;BME280;354;42.694;23.336;2023-04-10T07:16:25;95389.44;;;12.92;94.49
740;BME280;354;42.694;23.336;2023-04-10T07:18:51;95347.28;;;12.86;93.91
740;BME280;354;42.694;23.336;2023-04-10T07:21:17;95385.41;;;12.72;93.67
740;BME280;354;42.694;23.336;2023-04-10T07:23:42;95389.72;;;12.66;91.97
740;BME280;354;42.694;23.336;2023-04-10T07:26:07;95389.50;;;12.49;92.24
740;BME280;354;42.694;23.336;2023-04-10T07:28:33;95373.94;;;12.41;94.04
740;BME280;354;42.694;23.336;2023-04-10T07:30:58;95372.47;;;12.45;93.50
740;BME280;354;42.694;23.336;2023-04-10T07:33:24;95381.38;;;12.69;94.11
740;BME280;354;42.694;23.336;2023-04-10T07:35:50;95384.28;;;12.79;92.02
740;BME280;354;42.694;23.336;2023-04-10T07:38:15;95364.47;;;13.07;88.78
740;BME280;354;42.694;23.336;2023-04-10T07:40:41;95370.19;;;13.52;86.35
740;BME280;354;42.694;23.336;2023-04-10T07:43:07;95379.13;;;13.93;83.20
740;BME280;354;42.694;23.336;2023-04-10T07:45:32;95380.50;;;13.95;84.18
740;BME280;354;42.694;23.336;2023-04-10T07:47:57;95364.06;;;14.17;82.66
740;BME280;354;42.694;23.336;2023-04-10T07:50:23;95378.69;;;14.31;79.51
740;BME280;354;42.694;23.336;2023-04-10T07:52:48;95385.47;;;14.39;78.75
740;BME280;354;42.694;23.336;2023-04-10T07:55:14;95375.59;;;14.46;80.71
740;BME280;354;42.694;23.336;2023-04-10T07:57:39;95364.34;;;14.51;80.69
740;BME280;354;42.694;23.336;2023-04-10T08:00:05;95385.59;;;14.67;78.85
740;BME280;354;42.694;23.336;2023-04-10T08:02:31;95362.78;;;14.43;78.49
740;BME280;354;42.694;23.336;2023-04-10T08:04:56;95394.78;;;14.41;78.37
740;BME280;354;42.694;23.336;2023-04-10T08:07:22;95382.38;;;14.18;78.09
740;BME280;354;42.694;23.336;2023-04-10T08:09:47;95373.13;;;13.86;80.75
740;BME280;354;42.694;23.336;2023-04-10T08:12:13;95364.59;;;13.84;80.99
740;BME280;354;42.694;23.336;2023-04-10T08:14:38;95382.31;;;13.95;81.44
740;BME280;354;42.694;23.336;2023-04-10T08:17:03;95378.88;;;14.06;81.16
740;BME280;354;42.694;23.336;2023-04-10T08:19:29;95373.28;;;14.03;82.92
740;BME280;354;42.694;23.336;2023-04-10T08:21:54;95376.34;;;13.88;82.98
740;BME280;354;42.694;23.336;2023-04-10T08:24:20;95373.50;;;14.24;81.09
740;BME280;354;42.694;23.336;2023-04-10T08:26:47;95370.41;;;14.28;80.04
740;BME280;354;42.694;23.336;2023-04-10T08:29:12;95384.09;;;14.71;78.72
740;BME280;354;42.694;23.336;2023-04-10T08:31:38;95378.94;;;14.53;77.96
740;BME280;354;42.694;23.336;2023-04-10T08:34:03;95373.72;;;14.70;77.66
740;BME280;354;42.694;23.336;2023-04-10T08:36:29;95380.28;;;14.32;78.17
740;BME280;354;42.694;23.336;2023-04-10T08:38:55;95379.72;;;14.07;78.24
740;BME280;354;42.694;23.336;2023-04-10T08:41:21;95375.31;;;14.01;79.26
740;BME280;354;42.694;23.336;2023-04-10T08:43:46;95371.78;;;14.07;78.89
740;BME280;354;42.694;23.336;2023-04-10T08:46:14;95357.63;;;14.36;78.01
740;BME280;354;42.694;23.336;2023-04-10T08:51:21;95368.44;;;14.70;76.78
740;BME280;354;42.694;23.336;2023-04-10T08:53:50;95365.13;;;14.63;75.42
740;BME280;354;42.694;23.336;2023-04-10T08:56:18;95356.09;;;14.75;72.40
740;BME280;354;42.694;23.336;2023-04-10T08:58:45;95343.09;;;14.74;72.43
740;BME280;354;42.694;23.336;2023-04-10T09:01:10;95363.06;;;15.34;72.57
740;BME280;354;42.694;23.336;2023-04-10T09:03:36;95350.09;;;15.20;71.85
740;BME280;354;42.694;23.336;2023-04-10T09:06:02;95359.16;;;15.53;71.73
740;BME280;354;42.694;23.336;2023-04-10T09:08:28;95369.75;;;15.81;67.85
740;BME280;354;42.694;23.336;2023-04-10T09:10:54;95368.16;;;15.80;66.46
740;BME280;354;42.694;23.336;2023-04-10T09:13:40;95359.06;;;15.48;64.75
740;BME280;354;42.694;23.336;2023-04-10T09:16:06;95337.53;;;15.27;64.18
740;BME280;354;42.694;23.336;2023-04-10T09:18:50;95351.53;;;15.40;66.70
740;BME280;354;42.694;23.336;2023-04-10T09:21:18;95357.09;;;15.26;67.31
740;BME280;354;42.694;23.336;2023-04-10T09:23:45;95349.44;;;15.13;65.54
740;BME280;354;42.694;23.336;2023-04-10T09:26:28;95332.38;;;14.81;66.47
740;BME280;354;42.694;23.336;2023-04-10T09:29:06;95351.44;;;15.06;66.33
740;BME280;354;42.694;23.336;2023-04-10T09:31:36;95342.13;;;14.92;65.81
740;BME280;354;42.694;23.336;2023-04-10T09:36:40;95326.78;;;14.42;69.96
740;BME280;354;42.694;23.336;2023-04-10T09:39:07;95344.75;;;14.63;70.24
740;BME280;354;42.694;23.336;2023-04-10T09:41:33;95341.53;;;14.49;69.35
740;BME280;354;42.694;23.336;2023-04-10T09:44:09;95339.56;;;14.45;69.33
740;BME280;354;42.694;23.336;2023-04-10T09:46:36;95340.84;;;14.54;69.00
740;BME280;354;42.694;23.336;2023-04-10T09:49:01;95326.56;;;14.32;66.82
740;BME280;354;42.694;23.336;2023-04-10T09:51:34;95330.38;;;14.47;67.19
740;BME280;354;42.694;23.336;2023-04-10T09:54:01;95334.72;;;14.42;65.12
740;BME280;354;42.694;23.336;2023-04-10T09:56:30;95354.41;;;14.58;64.76
740;BME280;354;42.694;23.336;2023-04-10T09:59:00;95336.44;;;14.60;64.75
740;BME280;354;42.694;23.336;2023-04-10T10:01:26;95344.25;;;15.18;64.00
740;BME280;354;42.694;23.336;2023-04-10T10:04:01;95343.47;;;15.63;62.79
740;BME280;354;42.694;23.336;2023-04-10T10:06:31;95333.81;;;16.07;61.86
740;BME280;354;42.694;23.336;2023-04-10T10:09:00;95332.56;;;16.10;60.21
740;BME280;354;42.694;23.336;2023-04-10T10:11:27;95311.44;;;16.20;60.64
740;BME280;354;42.694;23.336;2023-04-10T10:13:53;95326.81;;;16.18;59.69
740;BME280;354;42.694;23.336;2023-04-10T10:16:30;95312.53;;;16.41;59.10
740;BME280;354;42.694;23.336;2023-04-10T10:19:26;95310.28;;;16.50;60.46
740;BME280;354;42.694;23.336;2023-04-10T10:21:55;95299.88;;;16.26;61.32
740;BME280;354;42.694;23.336;2023-04-10T10:24:24;95289.19;;;16.21;61.67
740;BME280;354;42.694;23.336;2023-04-10T10:26:50;95304.69;;;16.29;60.83
740;BME280;354;42.694;23.336;2023-04-10T10:29:18;95297.72;;;16.06;60.13
740;BME280;354;42.694;23.336;2023-04-10T10:31:45;95296.75;;;15.62;60.79
740;BME280;354;42.694;23.336;2023-04-10T10:34:12;95269.09;;;15.24;59.94
740;BME280;354;42.694;23.336;2023-04-10T10:36:39;95299.97;;;15.47;59.27
740;BME280;354;42.694;23.336;2023-04-10T10:42:32;95282.59;;;15.23;61.26
740;BME280;354;42.694;23.336;2023-04-10T10:45:14;95293.72;;;15.08;62.02
740;BME280;354;42.694;23.336;2023-04-10T10:47:46;95294.09;;;15.28;62.48
740;BME280;354;42.694;23.336;2023-04-10T10:50:12;95297.81;;;15.16;62.13
740;BME280;354;42.694;23.336;2023-04-10T10:52:47;95292.84;;;14.62;63.04
740;BME280;354;42.694;23.336;2023-04-10T10:57:54;95282.63;;;14.31;64.80
740;BME280;354;42.694;23.336;2023-04-10T11:00:21;95280.78;;;14.31;64.16
740;BME280;354;42.694;23.336;2023-04-10T11:08:16;95261.47;;;14.99;63.35
740;BME280;354;42.694;23.336;2023-04-10T11:13:39;95246.38;;;15.62;58.55
740;BME280;354;42.694;23.336;2023-04-10T11:16:07;95250.31;;;16.32;58.78
740;BME280;354;42.694;23.336;2023-04-10T11:21:11;95248.34;;;15.84;58.99
740;BME280;354;42.694;23.336;2023-04-10T11:23:38;95244.00;;;15.15;63.49
740;BME280;354;42.694;23.336;2023-04-10T11:29:04;95248.84;;;14.09;65.59
740;BME280;354;42.694;23.336;2023-04-10T11:31:32;95242.78;;;13.85;64.67
740;BME280;354;42.694;23.336;2023-04-10T11:34:02;95246.31;;;13.44;66.68
740;BME280;354;42.694;23.336;2023-04-10T11:36:29;95245.63;;;13.37;69.26
740;BME280;354;42.694;23.336;2023-04-10T11:39:13;95245.16;;;13.40;69.75
740;BME280;354;42.694;23.336;2023-04-10T11:41:44;95227.03;;;13.55;68.92
740;BME280;354;42.694;23.336;2023-04-10T11:44:12;95247.81;;;14.10;68.21
740;BME280;354;42.694;23.336;2023-04-10T11:46:42;95243.47;;;13.81;65.61
740;BME280;354;42.694;23.336;2023-04-10T11:49:11;95243.09;;;13.89;67.46
740;BME280;354;42.694;23.336;2023-04-10T11:51:38;95243.53;;;14.21;66.79
740;BME280;354;42.694;23.336;2023-04-10T11:54:11;95241.75;;;14.50;65.72
740;BME280;354;42.694;23.336;2023-04-10T11:56:39;95249.50;;;14.40;64.69
740;BME280;354;42.694;23.336;2023-04-10T11:59:07;95245.97;;;13.99;64.79
740;BME280;354;42.694;23.336;2023-04-10T12:01:35;95235.06;;;13.60;69.14
740;BME280;354;42.694;23.336;2023-04-10T12:04:01;95224.94;;;13.34;70.74
740;BME280;354;42.694;23.336;2023-04-10T12:06:27;95237.34;;;13.33;69.94
740;BME280;354;42.694;23.336;2023-04-10T12:08:53;95235.50;;;13.34;73.00
740;BME280;354;42.694;23.336;2023-04-10T12:11:28;95232.00;;;13.10;73.34
740;BME280;354;42.694;23.336;2023-04-10T12:13:55;95227.50;;;12.69;75.97
740;BME280;354;42.694;23.336;2023-04-10T12:16:21;95243.41;;;12.32;80.80
740;BME280;354;42.694;23.336;2023-04-10T12:18:48;95269.63;;;10.70;100.00
740;BME280;354;42.694;23.336;2023-04-10T12:21:14;95269.94;;;9.05;100.00
740;BME280;354;42.694;23.336;2023-04-10T12:23:41;95282.41;;;8.69;100.00
740;BME280;354;42.694;23.336;2023-04-10T12:26:15;95255.53;;;8.13;100.00
740;BME280;354;42.694;23.336;2023-04-10T12:28:49;95285.13;;;8.41;100.00
740;BME280;354;42.694;23.336;2023-04-10T12:31:15;95290.25;;;8.22;100.00
740;BME280;354;42.694;23.336;2023-04-10T12:33:44;95300.25;;;8.05;100.00
740;BME280;354;42.694;23.336;2023-04-10T12:36:23;95292.16;;;7.65;100.00
740;BME280;354;42.694;23.336;2023-04-10T12:38:53;95327.63;;;7.46;100.00
740;BME280;354;42.694;23.336;2023-04-10T12:41:24;95324.16;;;7.18;100.00
740;BME280;354;42.694;23.336;2023-04-10T12:43:51;95318.81;;;7.04;100.00
740;BME280;354;42.694;23.336;2023-04-10T12:46:27;95266.22;;;6.71;100.00
740;BME280;354;42.694;23.336;2023-04-10T12:49:07;95251.84;;;6.82;100.00
740;BME280;354;42.694;23.336;2023-04-10T12:54:26;95282.81;;;7.90;100.00
740;BME280;354;42.694;23.336;2023-04-10T12:56:51;95262.34;;;8.07;100.00
740;BME280;354;42.694;23.336;2023-04-10T12:59:18;95283.66;;;8.32;100.00
740;BME280;354;42.694;23.336;2023-04-10T13:01:43;95274.97;;;8.86;100.00
740;BME280;354;42.694;23.336;2023-04-10T13:04:08;95275.44;;;9.23;100.00
740;BME280;354;42.694;23.336;2023-04-10T13:06:41;95273.56;;;9.83;100.00
740;BME280;354;42.694;23.336;2023-04-10T13:09:07;95258.94;;;10.14;100.00
740;BME280;354;42.694;23.336;2023-04-10T13:11:32;95250.28;;;10.07;100.00
740;BME280;354;42.694;23.336;2023-04-10T13:13:57;95227.06;;;10.48;100.00
740;BME280;354;42.694;23.336;2023-04-10T13:16:23;95236.16;;;10.52;100.00
740;BME280;354;42.694;23.336;2023-04-10T13:18:48;95222.69;;;10.74;100.00
740;BME280;354;42.694;23.336;2023-04-10T13:21:13;95231.97;;;11.08;100.00
740;BME280;354;42.694;23.336;2023-04-10T13:23:42;95209.81;;;10.91;100.00
740;BME280;354;42.694;23.336;2023-04-10T13:26:08;95208.50;;;11.06;100.00
740;BME280;354;42.694;23.336;2023-04-10T13:28:33;95208.88;;;11.35;100.00
740;BME280;354;42.694;23.336;2023-04-10T13:30:58;95204.75;;;11.21;100.00
740;BME280;354;42.694;23.336;2023-04-10T13:33:24;95205.31;;;11.48;100.00
740;BME280;354;42.694;23.336;2023-04-10T13:35:49;95192.28;;;11.53;100.00
740;BME280;354;42.694;23.336;2023-04-10T13:38:14;95186.69;;;11.24;100.00
740;BME280;354;42.694;23.336;2023-04-10T13:40:40;95199.19;;;10.79;100.00
740;BME280;354;42.694;23.336;2023-04-10T13:43:05;95199.31;;;11.16;100.00
740;BME280;354;42.694;23.336;2023-04-10T13:45:31;95182.28;;;11.18;100.00
740;BME280;354;42.694;23.336;2023-04-10T13:47:57;95187.31;;;11.63;100.00
740;BME280;354;42.694;23.336;2023-04-10T13:50:22;95198.41;;;11.72;100.00
740;BME280;354;42.694;23.336;2023-04-10T13:52:48;95171.75;;;11.80;100.00
740;BME280;354;42.694;23.336;2023-04-10T13:55:13;95187.88;;;11.90;100.00
740;BME280;354;42.694;23.336;2023-04-10T13:57:38;95170.47;;;11.89;100.00
740;BME280;354;42.694;23.336;2023-04-10T14:00:05;95174.78;;;12.02;100.00
740;BME280;354;42.694;23.336;2023-04-10T14:02:30;95175.56;;;11.66;100.00
740;BME280;354;42.694;23.336;2023-04-10T14:04:57;95176.66;;;12.13;100.00
740;BME280;354;42.694;23.336;2023-04-10T14:07:23;95167.72;;;12.32;100.00
740;BME280;354;42.694;23.336;2023-04-10T14:09:48;95148.59;;;12.37;100.00